Time;durP1;ratioP1;P1;durP2;ratioP2;P2;SDS_P1;SDS_P2;PMS_P1;PMS_P2;Temp;Humidity;BMP_temperature;BMP_pressure;BME280_temperature;BME280_humidity;BME280_pressure;Samples;Min_cycle;Max_cycle;Signal;HPM_P1;HPM_P2
2021/03/16 07:41:40;;;;;;;7.63;3.58;;;8.00;48.80;;;;;;6248868;22;20565;-89
2021/03/16 07:44:10;;;;;;;7.22;3.90;;;7.80;48.80;;;;;;6223712;23;20146;-89
2021/03/16 07:46:51;;;;;;;5.00;2.65;;;8.40;49.20;;;;;;6223519;23;20181;-91
2021/03/16 07:52:45;;;;;;;6.15;2.38;;;7.90;48.50;;;;;;6229248;23;20161;-89
2021/03/16 07:55:24;;;;;;;3.63;2.70;;;8.30;49.40;;;;;;6222495;23;20146;-91
2021/03/16 07:57:50;;;;;;;3.80;2.92;;;7.90;48.00;;;;;;6247477;23;20185;-89
2021/03/16 08:00:39;;;;;;;4.00;2.63;;;7.90;48.40;;;;;;6222254;23;20646;-93
2021/03/16 08:03:09;;;;;;;3.25;2.95;;;7.20;48.00;;;;;;6222592;23;20154;-92
2021/03/16 08:06:19;;;;;;;8.20;3.42;;;7.70;49.30;;;;;;6223817;23;20149;-91
2021/03/16 08:08:44;;;;;;;4.15;3.42;;;7.60;50.10;;;;;;6223966;23;20161;-90
2021/03/16 08:11:19;;;;;;;4.57;2.90;;;7.60;50.00;;;;;;6223643;23;20168;-91
2021/03/16 08:13:59;;;;;;;6.05;3.17;;;7.90;49.80;;;;;;6222609;23;20632;-89
2021/03/16 08:16:39;;;;;;;7.00;3.00;;;8.10;49.30;;;;;;6221631;23;20149;-89
2021/03/16 08:19:54;;;;;;;4.72;2.80;;;8.40;48.50;;;;;;6221643;23;20145;-88
2021/03/16 08:22:21;;;;;;;7.85;3.72;;;8.20;48.90;;;;;;6221780;23;20518;-92
2021/03/16 08:25:15;;;;;;;5.75;3.05;;;8.50;47.10;;;;;;6222091;23;20480;-90
2021/03/16 08:27:41;;;;;;;6.10;2.95;;;8.50;46.50;;;;;;6217867;23;20181;-92
2021/03/16 08:30:08;;;;;;;5.60;3.33;;;8.70;45.60;;;;;;6222112;23;20612;-90
2021/03/16 08:32:44;;;;;;;4.55;3.35;;;8.70;45.10;;;;;;6222139;23;20181;-90
2021/03/16 08:35:16;;;;;;;6.53;2.25;;;8.70;43.70;;;;;;6222086;23;20156;-90
2021/03/16 08:38:28;;;;;;;6.65;2.45;;;8.70;45.70;;;;;;6221977;23;20153;-90
2021/03/16 08:41:16;;;;;;;5.90;2.55;;;8.70;45.00;;;;;;6221849;23;20154;-91
2021/03/16 08:43:47;;;;;;;5.63;2.25;;;8.60;44.70;;;;;;6223097;23;20655;-92
2021/03/16 08:46:35;;;;;;;3.95;3.45;;;8.20;44.30;;;;;;6224185;23;20184;-92
2021/03/16 08:49:02;;;;;;;5.68;2.20;;;8.50;44.90;;;;;;6226068;23;20153;-92
2021/03/16 08:51:36;;;;;;;3.03;2.13;;;8.60;42.60;;;;;;6223185;23;20179;-92
2021/03/16 08:54:02;;;;;;;9.60;3.33;;;8.30;45.50;;;;;;6222531;23;20576;-92
2021/03/16 08:56:30;;;;;;;4.57;3.10;;;8.50;45.20;;;;;;6222127;23;20168;-93
2021/03/16 08:59:03;;;;;;;6.80;3.08;;;8.60;44.10;;;;;;6223007;23;20384;-92
2021/03/16 09:01:32;;;;;;;5.72;2.55;;;8.70;43.80;;;;;;6223952;23;20564;-92
2021/03/16 09:04:19;;;;;;;6.82;3.20;;;8.70;43.00;;;;;;6222056;23;20161;-91
2021/03/16 09:06:49;;;;;;;5.97;2.70;;;8.60;43.50;;;;;;6221647;23;20459;-93
2021/03/16 09:09:26;;;;;;;4.78;2.10;;;8.60;43.10;;;;;;6221589;23;20586;-92
2021/03/16 09:11:53;;;;;;;7.40;2.85;;;9.00;41.00;;;;;;6221964;23;20472;-92
2021/03/16 09:14:38;;;;;;;7.43;3.95;;;9.30;41.20;;;;;;6220181;23;20380;-92
2021/03/16 09:17:05;;;;;;;6.32;2.53;;;9.30;41.20;;;;;;6221071;23;20164;-92
2021/03/16 09:22:57;;;;;;;4.38;2.53;;;8.90;41.60;;;;;;6247762;23;20199;-93
2021/03/16 09:29:07;;;;;;;6.90;4.07;;;8.90;42.10;;;;;;6247995;23;20196;-93
2021/03/16 09:31:33;;;;;;;5.60;2.60;;;9.00;42.50;;;;;;6220999;23;20157;-92
2021/03/16 09:34:07;;;;;;;6.13;3.30;;;8.60;41.70;;;;;;6222097;23;20521;-90
2021/03/16 09:36:33;;;;;;;3.65;2.63;;;9.00;42.20;;;;;;6222228;23;20399;-91
2021/03/16 09:39:14;;;;;;;6.23;2.90;;;9.10;44.80;;;;;;6220279;23;20153;-92
2021/03/16 09:42:00;;;;;;;6.55;3.00;;;8.90;42.30;;;;;;6220368;23;20201;-89
2021/03/16 09:44:39;;;;;;;6.43;3.70;;;9.00;42.10;;;;;;6223491;23;20157;-93
2021/03/16 09:47:11;;;;;;;5.45;2.50;;;8.90;42.90;;;;;;6223304;23;20869;-92
2021/03/16 09:49:41;;;;;;;4.75;2.30;;;8.40;43.30;;;;;;6250006;23;20557;-91
2021/03/16 09:52:11;;;;;;;4.43;2.50;;;8.50;44.30;;;;;;6223402;23;20145;-89
2021/03/16 09:54:42;;;;;;;5.03;2.40;;;8.20;45.20;;;;;;6223866;23;20191;-93
2021/03/16 09:57:33;;;;;;;3.05;1.98;;;8.10;45.80;;;;;;6224317;23;20161;-91
2021/03/16 10:00:00;;;;;;;7.88;5.22;;;7.90;46.60;;;;;;6223716;23;20142;-91
2021/03/16 10:03:04;;;;;;;4.68;2.95;;;8.10;47.50;;;;;;6223340;23;20161;-91
2021/03/16 10:05:30;;;;;;;5.70;2.63;;;7.80;48.60;;;;;;6223606;23;20627;-90
2021/03/16 10:07:58;;;;;;;6.20;3.03;;;7.90;49.70;;;;;;6222673;23;20182;-90
2021/03/16 10:10:25;;;;;;;5.15;2.50;;;7.80;49.90;;;;;;6222867;23;20387;-90
2021/03/16 10:13:10;;;;;;;5.35;3.00;;;8.10;50.00;;;;;;6222482;23;20142;-90
2021/03/16 10:15:39;;;;;;;6.68;3.20;;;8.60;49.10;;;;;;6222986;23;20145;-91
2021/03/16 10:18:09;;;;;;;5.95;3.08;;;8.20;49.00;;;;;;6221506;23;20888;-91
2021/03/16 10:20:37;;;;;;;4.45;2.85;;;8.40;47.00;;;;;;6222242;23;20174;-90
2021/03/16 10:23:10;;;;;;;5.13;3.03;;;8.70;46.30;;;;;;6222136;23;20146;-90
2021/03/16 10:25:36;;;;;;;8.93;4.15;;;8.80;45.70;;;;;;6222712;23;20149;-91
2021/03/16 10:28:38;;;;;;;3.88;2.72;;;8.90;45.30;;;;;;6222771;23;20173;-94
2021/03/16 10:31:17;;;;;;;4.82;3.33;;;9.20;45.00;;;;;;6222741;23;20142;-92
2021/03/16 10:33:56;;;;;;;5.20;2.65;;;9.40;44.90;;;;;;6222886;23;20438;-90
2021/03/16 10:36:22;;;;;;;6.10;3.50;;;9.50;43.50;;;;;;6222663;23;20156;-91
2021/03/16 10:38:57;;;;;;;6.35;3.60;;;9.50;43.50;;;;;;6221260;23;20384;-91
2021/03/16 10:41:33;;;;;;;4.93;3.67;;;9.40;42.40;;;;;;6222536;23;20633;-92
2021/03/16 10:43:58;;;;;;;7.22;3.10;;;9.40;41.30;;;;;;6222330;23;20427;-90
2021/03/16 10:46:37;;;;;;;5.90;3.03;;;8.90;41.90;;;;;;6223125;23;20178;-90
2021/03/16 10:49:03;;;;;;;6.30;3.80;;;8.80;42.10;;;;;;6219305;23;20384;-91
2021/03/16 10:51:31;;;;;;;4.50;3.50;;;8.90;42.30;;;;;;6222064;23;20450;-91
2021/03/16 10:53:57;;;;;;;3.88;2.90;;;8.90;41.40;;;;;;6224424;23;20148;-93
2021/03/16 10:56:34;;;;;;;6.00;3.00;;;9.30;41.90;;;;;;6220795;23;20420;-93
2021/03/16 10:59:08;;;;;;;6.97;3.65;;;9.30;41.40;;;;;;6226485;23;20381;-93
2021/03/16 11:01:36;;;;;;;8.18;3.95;;;9.30;41.50;;;;;;6227012;23;20753;-93
2021/03/16 11:04:14;;;;;;;8.45;3.70;;;9.10;42.30;;;;;;6224563;23;20384;-92
2021/03/16 11:06:42;;;;;;;5.13;3.03;;;9.20;41.90;;;;;;6224251;23;20260;-91
2021/03/16 11:09:12;;;;;;;6.38;3.15;;;9.20;41.80;;;;;;6225314;23;20380;-91
2021/03/16 11:11:56;;;;;;;7.13;3.13;;;8.60;41.60;;;;;;6222018;23;20407;-91
2021/03/16 11:14:22;;;;;;;5.82;3.10;;;9.10;43.00;;;;;;6221344;23;20831;-90
2021/03/16 11:16:49;;;;;;;4.83;3.23;;;9.00;41.30;;;;;;6222517;23;20161;-92
2021/03/16 11:19:15;;;;;;;6.50;3.05;;;9.20;42.00;;;;;;6222370;23;20196;-92
2021/03/16 11:21:42;;;;;;;7.27;3.13;;;9.20;41.60;;;;;;6222743;23;20153;-92
2021/03/16 11:24:09;;;;;;;4.03;3.00;;;8.90;40.60;;;;;;6222217;23;20164;-91
2021/03/16 11:26:34;;;;;;;4.25;3.15;;;9.30;40.40;;;;;;6222786;23;20266;-91
2021/03/16 11:29:07;;;;;;;5.73;3.20;;;9.30;40.20;;;;;;6222254;23;20185;-91
2021/03/16 11:31:33;;;;;;;6.40;3.65;;;9.30;38.30;;;;;;6221810;23;20156;-90
2021/03/16 11:34:01;;;;;;;6.97;2.97;;;9.20;39.70;;;;;;6221612;23;20613;-91
2021/03/16 11:36:27;;;;;;;2.70;2.50;;;8.90;41.30;;;;;;6221742;23;20208;-89
2021/03/16 11:39:08;;;;;;;6.27;3.60;;;8.90;40.40;;;;;;6220599;23;20158;-90
2021/03/16 11:41:41;;;;;;;6.05;3.05;;;9.30;40.60;;;;;;6221763;23;20197;-89
2021/03/16 11:44:07;;;;;;;4.22;2.40;;;9.20;39.50;;;;;;6221044;23;20149;-90
2021/03/16 11:47:15;;;;;;;7.83;3.47;;;9.40;39.80;;;;;;6222266;23;20211;-93
2021/03/16 11:49:40;;;;;;;4.13;2.55;;;9.20;40.10;;;;;;6221558;23;20153;-90
2021/03/16 11:52:24;;;;;;;5.40;2.90;;;9.10;39.70;;;;;;6219891;23;20380;-85
2021/03/16 11:54:50;;;;;;;5.63;2.95;;;9.00;40.60;;;;;;6220795;23;20832;-91
2021/03/16 12:04:28;;;;;;;4.25;3.10;;;9.10;41.40;;;;;;6249302;23;20184;-92
2021/03/16 12:06:54;;;;;;;3.35;3.05;;;8.70;43.50;;;;;;6222552;23;20173;-91
2021/03/16 12:09:26;;;;;;;4.00;2.33;;;8.40;44.10;;;;;;6222034;23;20149;-92
2021/03/16 12:11:51;;;;;;;4.15;3.35;;;8.50;45.00;;;;;;6221680;23;20596;-90
2021/03/16 12:17:43;;;;;;;4.25;2.20;;;8.40;43.60;;;;;;6248586;23;20137;-91
2021/03/16 12:20:09;;;;;;;3.95;2.55;;;8.70;41.80;;;;;;6222380;23;20173;-92
2021/03/16 12:22:42;;;;;;;3.42;2.20;;;8.60;43.20;;;;;;6221851;23;20248;-90
2021/03/16 12:25:08;;;;;;;3.67;2.55;;;8.30;45.00;;;;;;6222034;23;20150;-91
2021/03/16 12:27:48;;;;;;;4.90;2.80;;;8.40;46.30;;;;;;6221782;23;20647;-91
2021/03/16 12:30:14;;;;;;;6.80;2.65;;;8.30;47.00;;;;;;6221407;23;20195;-89
2021/03/16 12:33:05;;;;;;;8.07;3.67;;;8.20;46.70;;;;;;6221351;23;20142;-89
2021/03/16 12:35:31;;;;;;;3.47;2.75;;;8.10;46.90;;;;;;6221605;23;20372;-93
2021/03/16 12:41:55;;;;;;;4.25;2.85;;;8.40;47.80;;;;;;6246980;22;20826;-90
2021/03/16 12:44:20;;;;;;;6.88;3.45;;;8.40;46.20;;;;;;6250159;23;20168;-96
2021/03/16 12:46:46;;;;;;;4.57;3.17;;;8.80;45.40;;;;;;6225109;23;20256;-95
2021/03/16 12:52:34;;;;;;;2.20;2.00;;;9.50;44.60;;;;;;6257078;23;20156;-94
2021/03/16 12:58:22;;;;;;;6.68;3.20;;;10.00;40.10;;;;;;6258426;23;20125;-93
2021/03/16 13:01:03;;;;;;;6.90;1.90;;;9.70;40.50;;;;;;6232803;23;20150;-91
2021/03/16 13:03:29;;;;;;;4.30;2.00;;;9.30;40.90;;;;;;6227713;23;20608;-93
2021/03/16 13:05:55;;;;;;;3.40;2.00;;;9.50;40.30;;;;;;6222100;23;20199;-91
2021/03/16 13:08:58;;;;;;;9.17;3.60;;;9.40;42.80;;;;;;6222071;23;20173;-92
2021/03/16 13:11:24;;;;;;;7.18;2.15;;;9.20;43.60;;;;;;6222470;23;20164;-92
2021/03/16 13:13:56;;;;;;;7.17;2.30;;;8.90;43.40;;;;;;6222942;23;20553;-91
2021/03/16 13:16:21;;;;;;;2.85;1.65;;;8.40;43.50;;;;;;6221171;23;20719;-91
2021/03/16 13:18:48;;;;;;;4.27;2.40;;;9.20;44.30;;;;;;6222799;23;20162;-91
2021/03/16 13:22:01;;;;;;;3.22;1.75;;;8.70;43.60;;;;;;6222320;23;20149;-93
2021/03/16 13:24:27;;;;;;;3.15;2.40;;;9.00;44.10;;;;;;6221043;23;20150;-91
2021/03/16 13:27:32;;;;;;;2.67;2.23;;;9.20;42.60;;;;;;6221461;23;20682;-91
2021/03/16 13:29:58;;;;;;;5.80;2.83;;;9.30;41.90;;;;;;6221968;23;20385;-92
2021/03/16 13:32:23;;;;;;;11.07;3.00;;;9.60;41.70;;;;;;6222392;23;20153;-91
2021/03/16 13:34:57;;;;;;;4.33;2.43;;;10.00;38.20;;;;;;6222357;23;20613;-93
2021/03/16 13:37:23;;;;;;;3.92;1.70;;;10.00;37.50;;;;;;6221387;23;20225;-92
2021/03/16 13:39:50;;;;;;;2.97;2.20;;;10.10;37.30;;;;;;6220641;23;20656;-92
2021/03/16 13:42:36;;;;;;;4.95;2.38;;;10.30;37.60;;;;;;6220874;22;20201;-92
2021/03/16 13:45:03;;;;;;;5.20;2.13;;;10.30;36.90;;;;;;6221186;23;20607;-90
2021/03/16 13:47:43;;;;;;;4.97;2.00;;;10.10;35.10;;;;;;6233205;23;20161;-89
2021/03/16 13:50:10;;;;;;;2.30;1.73;;;10.10;34.30;;;;;;6219790;23;20142;-86
2021/03/16 13:53:13;;;;;;;4.22;2.05;;;10.20;35.90;;;;;;6222424;23;20153;-91
2021/03/16 13:55:39;;;;;;;3.65;2.05;;;10.30;36.60;;;;;;6220509;23;20573;-90
2021/03/16 13:58:36;;;;;;;3.70;2.17;;;10.30;35.30;;;;;;6220477;23;20161;-91
2021/03/16 14:01:01;;;;;;;3.40;2.27;;;10.00;36.20;;;;;;6218961;23;20376;-91
2021/03/16 14:03:41;;;;;;;2.40;1.93;;;10.30;36.20;;;;;;6220531;23;20399;-90
2021/03/16 14:06:06;;;;;;;2.83;2.05;;;9.90;35.70;;;;;;6220766;23;20442;-91
2021/03/16 14:08:33;;;;;;;4.87;1.60;;;10.10;34.80;;;;;;6220701;23;20512;-90
2021/03/16 14:10:59;;;;;;;6.57;3.60;;;10.30;35.50;;;;;;6220533;23;20599;-90
2021/03/16 14:17:07;;;;;;;5.90;2.20;;;9.80;37.20;;;;;;6248144;23;20141;-91
2021/03/16 14:19:32;;;;;;;2.33;2.10;;;9.60;40.50;;;;;;6221647;23;20161;-90
2021/03/16 14:21:58;;;;;;;3.90;2.95;;;9.70;39.60;;;;;;6223154;23;20384;-90
2021/03/16 14:24:24;;;;;;;5.00;3.10;;;9.70;39.00;;;;;;6224953;23;20153;-91
2021/03/16 14:26:49;;;;;;;3.03;1.97;;;10.20;38.70;;;;;;6224100;23;20177;-91
2021/03/16 14:29:45;;;;;;;5.10;2.67;;;10.40;39.50;;;;;;6224621;23;20146;-91
2021/03/16 14:32:11;;;;;;;3.13;2.10;;;10.50;37.90;;;;;;6222931;23;20411;-91
2021/03/16 14:34:56;;;;;;;3.20;2.10;;;10.70;36.90;;;;;;6221851;23;20376;-89
2021/03/16 14:37:21;;;;;;;5.38;2.20;;;11.20;35.00;;;;;;6221865;23;20380;-89
2021/03/16 14:40:11;;;;;;;2.60;1.60;;;11.10;33.90;;;;;;6224468;23;20441;-89
2021/03/16 14:42:45;;;;;;;3.72;1.70;;;11.40;32.20;;;;;;6222316;23;20404;-89
2021/03/16 14:45:11;;;;;;;3.75;1.40;;;11.00;30.90;;;;;;6222532;23;20043;-89
2021/03/16 14:47:38;;;;;;;5.95;2.20;;;11.00;29.70;;;;;;6223204;23;20239;-90
2021/03/16 14:50:05;;;;;;;2.58;1.65;;;10.40;30.20;;;;;;6223377;23;20152;-89
2021/03/16 14:52:53;;;;;;;2.75;1.38;;;10.10;31.20;;;;;;6223472;23;20204;-90
2021/03/16 14:55:19;;;;;;;7.78;1.88;;;10.10;31.60;;;;;;6223236;23;20156;-89
2021/03/16 14:58:13;;;;;;;1.43;1.17;;;9.70;32.10;;;;;;6222774;23;20189;-89
2021/03/16 15:00:39;;;;;;;3.75;1.55;;;10.10;32.60;;;;;;6221999;23;20585;-91
2021/03/16 15:03:14;;;;;;;3.30;1.50;;;9.70;33.90;;;;;;6222434;23;20154;-88
2021/03/16 15:05:40;;;;;;;5.18;1.80;;;9.60;34.80;;;;;;6222635;23;20388;-89
2021/03/16 15:08:37;;;;;;;1.80;1.50;;;9.60;35.20;;;;;;6222310;23;20189;-89
2021/03/16 15:11:03;;;;;;;2.10;1.90;;;9.20;36.30;;;;;;6222376;23;20376;-89
2021/03/16 15:13:29;;;;;;;2.60;1.50;;;8.90;37.20;;;;;;6222495;23;20146;-89
2021/03/16 15:15:57;;;;;;;2.10;1.30;;;8.80;38.00;;;;;;6222233;23;20239;-89
2021/03/16 15:18:23;;;;;;;2.10;1.58;;;9.10;37.70;;;;;;6222222;23;20150;-89
2021/03/16 15:21:24;;;;;;;5.88;1.70;;;9.60;38.00;;;;;;6224088;23;20146;-89
2021/03/16 15:23:50;;;;;;;3.83;1.80;;;9.30;38.10;;;;;;6224087;23;20145;-89
2021/03/16 15:30:01;;;;;;;4.18;2.00;;;8.60;39.30;;;;;;6249603;23;20351;-90
2021/03/16 15:32:26;;;;;;;4.28;2.30;;;8.30;40.10;;;;;;6221450;23;20376;-89
2021/03/16 15:34:53;;;;;;;4.32;2.40;;;8.10;40.50;;;;;;6223117;23;20830;-90
2021/03/16 15:37:19;;;;;;;6.05;2.05;;;8.30;41.50;;;;;;6223234;23;20388;-90
2021/03/16 15:43:07;;;;;;;2.40;2.00;;;8.40;41.80;;;;;;6247869;22;20201;-90
2021/03/16 15:45:52;;;;;;;4.73;2.33;;;8.40;42.50;;;;;;6222330;23;20158;-91
2021/03/16 15:48:18;;;;;;;2.75;2.10;;;8.30;42.80;;;;;;6221873;23;20153;-91
2021/03/16 15:50:44;;;;;;;3.77;2.00;;;8.30;42.90;;;;;;6222113;23;20153;-89
2021/03/16 15:53:32;;;;;;;4.00;2.97;;;8.10;43.20;;;;;;6222107;23;20474;-89
2021/03/16 15:55:58;;;;;;;4.22;2.75;;;8.20;44.00;;;;;;6221861;23;20146;-91
2021/03/16 15:58:24;;;;;;;5.03;3.78;;;8.20;43.80;;;;;;6221854;23;20153;-90
2021/03/16 16:01:19;;;;;;;4.50;2.80;;;8.10;44.00;;;;;;6221538;23;20899;-90
2021/03/16 16:03:49;;;;;;;2.58;2.22;;;8.30;44.30;;;;;;6228871;23;20357;-95
2021/03/16 16:06:20;;;;;;;5.10;4.22;;;8.70;43.30;;;;;;6213247;23;20164;-95
2021/03/16 16:09:05;;;;;;;5.80;4.43;;;8.40;42.60;;;;;;6221496;23;20154;-91
2021/03/16 16:12:24;;;;;;;5.72;3.78;;;8.70;42.60;;;;;;6222063;23;20227;-92
2021/03/16 16:15:32;;;;;;;5.13;3.80;;;8.60;42.80;;;;;;6223989;23;20146;-90
2021/03/16 16:17:58;;;;;;;8.18;6.18;;;8.30;43.50;;;;;;6228781;23;20142;-91
2021/03/16 16:20:48;;;;;;;4.60;4.10;;;8.30;44.30;;;;;;6225263;23;20223;-91
2021/03/16 16:32:24;;;;;;;5.03;3.30;;;8.40;44.80;;;;;;6247615;23;20438;-90
2021/03/16 16:35:18;;;;;;;4.83;3.37;;;8.20;44.00;;;;;;6221681;23;20150;-91
2021/03/16 16:37:44;;;;;;;6.85;6.25;;;8.40;44.40;;;;;;6226488;23;20156;-92
2021/03/16 16:40:30;;;;;;;6.10;5.70;;;8.50;43.90;;;;;;6223128;23;20145;-91
2021/03/16 16:43:18;;;;;;;9.63;8.95;;;8.60;43.60;;;;;;6215728;23;20768;-91
2021/03/16 16:45:44;;;;;;;9.75;9.15;;;8.60;43.90;;;;;;6215300;23;20385;-90
2021/03/16 16:51:32;;;;;;;6.13;3.40;;;8.50;42.70;;;;;;6221125;23;20154;-90
2021/03/16 16:53:57;;;;;;;3.03;2.80;;;8.70;42.80;;;;;;6217076;23;20473;-90
2021/03/16 16:56:27;;;;;;;6.57;2.90;;;8.60;43.40;;;;;;6219208;23;20767;-90
2021/03/16 16:58:53;;;;;;;2.85;2.58;;;8.80;43.20;;;;;;6217287;23;20578;-89
2021/03/16 17:01:28;;;;;;;3.65;3.10;;;8.70;43.20;;;;;;6218569;23;20405;-89
2021/03/16 17:03:53;;;;;;;3.92;3.28;;;8.90;43.80;;;;;;6218090;23;20150;-89
2021/03/16 17:06:43;;;;;;;6.70;2.90;;;9.00;43.60;;;;;;6218733;23;20192;-89
2021/03/16 17:09:09;;;;;;;5.80;3.50;;;9.30;43.40;;;;;;6217579;23;20581;-89
2021/03/16 17:11:37;;;;;;;8.30;3.13;;;9.00;43.90;;;;;;6216264;23;20174;-89
2021/03/16 17:14:03;;;;;;;5.22;2.88;;;9.20;45.10;;;;;;6217017;23;20153;-89
2021/03/16 17:16:47;;;;;;;4.23;3.83;;;9.10;43.60;;;;;;6217917;23;20154;-89
2021/03/16 17:19:47;;;;;;;5.43;4.40;;;9.20;42.90;;;;;;6213569;23;20161;-89
2021/03/16 17:22:22;;;;;;;6.03;5.18;;;9.30;41.80;;;;;;6216949;23;20562;-89
2021/03/16 17:24:48;;;;;;;5.70;4.13;;;9.10;42.40;;;;;;6216513;23;20185;-89
2021/03/16 17:27:32;;;;;;;5.80;3.53;;;9.30;42.70;;;;;;6217119;23;20182;-90
2021/03/16 17:29:57;;;;;;;3.55;3.25;;;9.30;42.70;;;;;;6215387;23;20233;-90
2021/03/16 17:32:23;;;;;;;3.83;3.30;;;9.00;43.10;;;;;;6216234;23;20177;-90
2021/03/16 17:38:12;;;;;;;5.80;3.92;;;8.70;44.20;;;;;;6242034;23;20173;-94
